sensor_id;sensor_type;location;lat;lon;timestamp;P1;durP1;ratioP1;P2;durP2;ratioP2
18520;SDS011;9390;51.244;6.982;2022-10-31T00:01:17;19.70;;;8.57;;
18520;SDS011;9390;51.244;6.982;2022-10-31T00:03:50;23.60;;;8.60;;
18520;SDS011;9390;51.244;6.982;2022-10-31T00:06:21;22.60;;;8.73;;
18520;SDS011;9390;51.244;6.982;2022-10-31T00:08:55;17.13;;;8.75;;
18520;SDS011;9390;51.244;6.982;2022-10-31T00:11:28;23.42;;;8.80;;
18520;SDS011;9390;51.244;6.982;2022-10-31T00:14:00;24.73;;;8.38;;
18520;SDS011;9390;51.244;6.982;2022-10-31T00:16:32;25.40;;;8.40;;
18520;SDS011;9390;51.244;6.982;2022-10-31T00:19:05;18.83;;;8.32;;
18520;SDS011;9390;51.244;6.982;2022-10-31T00:21:37;22.35;;;8.77;;
18520;SDS011;9390;51.244;6.982;2022-10-31T00:24:10;21.42;;;8.55;;
18520;SDS011;9390;51.244;6.982;2022-10-31T00:26:41;21.70;;;9.15;;
18520;SDS011;9390;51.244;6.982;2022-10-31T00:29:13;18.05;;;8.55;;
18520;SDS011;9390;51.244;6.982;2022-10-31T00:31:44;20.33;;;8.52;;
18520;SDS011;9390;51.244;6.982;2022-10-31T00:34:15;18.85;;;8.32;;
18520;SDS011;9390;51.244;6.982;2022-10-31T00:36:47;20.45;;;8.30;;
18520;SDS011;9390;51.244;6.982;2022-10-31T00:39:19;21.20;;;9.18;;
18520;SDS011;9390;51.244;6.982;2022-10-31T00:41:51;24.75;;;8.43;;
18520;SDS011;9390;51.244;6.982;2022-10-31T00:44:22;24.92;;;8.95;;
18520;SDS011;9390;51.244;6.982;2022-10-31T00:46:54;22.98;;;8.73;;
18520;SDS011;9390;51.244;6.982;2022-10-31T00:49:25;21.65;;;8.30;;
18520;SDS011;9390;51.244;6.982;2022-10-31T00:51:56;29.27;;;9.40;;
18520;SDS011;9390;51.244;6.982;2022-10-31T00:54:29;26.90;;;8.75;;
18520;SDS011;9390;51.244;6.982;2022-10-31T00:57:02;26.60;;;8.95;;
18520;SDS011;9390;51.244;6.982;2022-10-31T00:59:33;21.80;;;8.32;;
18520;SDS011;9390;51.244;6.982;2022-10-31T01:02:05;19.60;;;8.15;;
18520;SDS011;9390;51.244;6.982;2022-10-31T01:04:36;29.38;;;8.30;;
18520;SDS011;9390;51.244;6.982;2022-10-31T01:07:08;17.80;;;7.45;;
18520;SDS011;9390;51.244;6.982;2022-10-31T01:09:42;19.50;;;7.85;;
18520;SDS011;9390;51.244;6.982;2022-10-31T01:12:13;20.42;;;8.00;;
18520;SDS011;9390;51.244;6.982;2022-10-31T01:14:45;24.23;;;8.48;;
18520;SDS011;9390;51.244;6.982;2022-10-31T01:17:16;22.88;;;7.45;;
18520;SDS011;9390;51.244;6.982;2022-10-31T01:19:48;19.13;;;7.88;;
18520;SDS011;9390;51.244;6.982;2022-10-31T01:22:19;16.95;;;7.30;;
18520;SDS011;9390;51.244;6.982;2022-10-31T01:24:52;23.60;;;7.80;;
18520;SDS011;9390;51.244;6.982;2022-10-31T01:27:23;18.80;;;8.50;;
18520;SDS011;9390;51.244;6.982;2022-10-31T01:29:55;25.13;;;7.57;;
18520;SDS011;9390;51.244;6.982;2022-10-31T01:32:26;18.98;;;7.65;;
18520;SDS011;9390;51.244;6.982;2022-10-31T01:34:58;16.48;;;7.47;;
18520;SDS011;9390;51.244;6.982;2022-10-31T01:37:30;22.67;;;7.55;;
18520;SDS011;9390;51.244;6.982;2022-10-31T01:40:03;16.45;;;8.25;;
18520;SDS011;9390;51.244;6.982;2022-10-31T01:42:35;20.90;;;7.57;;
18520;SDS011;9390;51.244;6.982;2022-10-31T01:45:09;25.85;;;8.95;;
18520;SDS011;9390;51.244;6.982;2022-10-31T01:47:42;16.73;;;8.32;;
18520;SDS011;9390;51.244;6.982;2022-10-31T01:50:18;22.40;;;8.05;;
18520;SDS011;9390;51.244;6.982;2022-10-31T01:52:56;21.73;;;7.88;;
18520;SDS011;9390;51.244;6.982;2022-10-31T01:55:30;18.83;;;8.35;;
18520;SDS011;9390;51.244;6.982;2022-10-31T01:58:04;20.02;;;8.20;;
18520;SDS011;9390;51.244;6.982;2022-10-31T02:00:38;23.85;;;8.35;;
18520;SDS011;9390;51.244;6.982;2022-10-31T02:03:10;20.47;;;8.70;;
18520;SDS011;9390;51.244;6.982;2022-10-31T02:05:42;25.27;;;7.75;;
18520;SDS011;9390;51.244;6.982;2022-10-31T02:08:15;29.85;;;9.40;;
18520;SDS011;9390;51.244;6.982;2022-10-31T02:10:49;23.27;;;9.38;;
18520;SDS011;9390;51.244;6.982;2022-10-31T02:13:20;25.27;;;8.77;;
18520;SDS011;9390;51.244;6.982;2022-10-31T02:15:54;23.35;;;9.35;;
18520;SDS011;9390;51.244;6.982;2022-10-31T02:18:27;29.05;;;10.40;;
18520;SDS011;9390;51.244;6.982;2022-10-31T02:21:02;24.58;;;10.13;;
18520;SDS011;9390;51.244;6.982;2022-10-31T02:23:53;21.92;;;9.57;;
18520;SDS011;9390;51.244;6.982;2022-10-31T02:26:38;22.48;;;9.60;;
18520;SDS011;9390;51.244;6.982;2022-10-31T02:29:18;24.95;;;10.32;;
18520;SDS011;9390;51.244;6.982;2022-10-31T02:32:22;24.65;;;10.13;;
18520;SDS011;9390;51.244;6.982;2022-10-31T02:34:58;22.45;;;10.25;;
18520;SDS011;9390;51.244;6.982;2022-10-31T02:37:34;30.00;;;11.43;;
18520;SDS011;9390;51.244;6.982;2022-10-31T02:40:10;23.50;;;10.32;;
18520;SDS011;9390;51.244;6.982;2022-10-31T02:42:47;21.67;;;9.38;;
18520;SDS011;9390;51.244;6.982;2022-10-31T02:45:24;26.30;;;10.60;;
18520;SDS011;9390;51.244;6.982;2022-10-31T02:48:00;29.95;;;11.18;;
18520;SDS011;9390;51.244;6.982;2022-10-31T02:50:33;20.38;;;10.75;;
18520;SDS011;9390;51.244;6.982;2022-10-31T02:53:06;24.35;;;10.50;;
18520;SDS011;9390;51.244;6.982;2022-10-31T02:55:49;31.33;;;10.68;;
18520;SDS011;9390;51.244;6.982;2022-10-31T02:58:23;27.27;;;10.23;;
18520;SDS011;9390;51.244;6.982;2022-10-31T03:01:08;31.77;;;11.05;;
18520;SDS011;9390;51.244;6.982;2022-10-31T03:03:50;28.13;;;10.95;;
18520;SDS011;9390;51.244;6.982;2022-10-31T03:06:29;28.58;;;11.82;;
18520;SDS011;9390;51.244;6.982;2022-10-31T03:09:03;24.45;;;10.80;;
18520;SDS011;9390;51.244;6.982;2022-10-31T03:11:43;24.35;;;11.27;;
18520;SDS011;9390;51.244;6.982;2022-10-31T03:14:17;26.90;;;11.35;;
18520;SDS011;9390;51.244;6.982;2022-10-31T03:16:52;23.17;;;10.65;;
18520;SDS011;9390;51.244;6.982;2022-10-31T03:19:27;25.77;;;10.75;;
18520;SDS011;9390;51.244;6.982;2022-10-31T03:22:01;22.83;;;10.50;;
18520;SDS011;9390;51.244;6.982;2022-10-31T03:24:37;25.55;;;11.40;;
18520;SDS011;9390;51.244;6.982;2022-10-31T03:27:09;25.75;;;10.63;;
18520;SDS011;9390;51.244;6.982;2022-10-31T03:32:15;19.75;;;10.45;;
18520;SDS011;9390;51.244;6.982;2022-10-31T03:34:49;24.55;;;9.63;;
18520;SDS011;9390;51.244;6.982;2022-10-31T03:37:22;23.77;;;10.60;;
18520;SDS011;9390;51.244;6.982;2022-10-31T03:39:55;19.90;;;10.18;;
18520;SDS011;9390;51.244;6.982;2022-10-31T03:42:27;24.90;;;9.85;;
18520;SDS011;9390;51.244;6.982;2022-10-31T03:45:02;22.95;;;10.40;;
18520;SDS011;9390;51.244;6.982;2022-10-31T03:47:36;32.45;;;10.20;;
18520;SDS011;9390;51.244;6.982;2022-10-31T03:50:10;25.75;;;10.27;;
18520;SDS011;9390;51.244;6.982;2022-10-31T03:52:44;17.40;;;9.27;;
18520;SDS011;9390;51.244;6.982;2022-10-31T03:55:18;22.33;;;9.93;;
18520;SDS011;9390;51.244;6.982;2022-10-31T03:57:52;18.70;;;8.85;;
18520;SDS011;9390;51.244;6.982;2022-10-31T04:00:27;26.73;;;10.43;;
18520;SDS011;9390;51.244;6.982;2022-10-31T04:03:03;21.50;;;9.70;;
18520;SDS011;9390;51.244;6.982;2022-10-31T04:05:37;25.30;;;9.77;;
18520;SDS011;9390;51.244;6.982;2022-10-31T04:08:10;25.77;;;9.55;;
18520;SDS011;9390;51.244;6.982;2022-10-31T04:10:44;22.17;;;9.02;;
18520;SDS011;9390;51.244;6.982;2022-10-31T04:13:20;19.88;;;9.65;;
18520;SDS011;9390;51.244;6.982;2022-10-31T04:15:55;18.85;;;8.75;;
18520;SDS011;9390;51.244;6.982;2022-10-31T04:18:27;31.52;;;10.60;;
18520;SDS011;9390;51.244;6.982;2022-10-31T04:21:01;19.67;;;9.57;;
18520;SDS011;9390;51.244;6.982;2022-10-31T04:23:34;24.25;;;10.80;;
18520;SDS011;9390;51.244;6.982;2022-10-31T04:26:07;29.45;;;10.25;;
18520;SDS011;9390;51.244;6.982;2022-10-31T04:28:39;31.15;;;9.98;;
18520;SDS011;9390;51.244;6.982;2022-10-31T04:31:11;26.17;;;10.07;;
18520;SDS011;9390;51.244;6.982;2022-10-31T04:33:42;20.52;;;9.32;;
18520;SDS011;9390;51.244;6.982;2022-10-31T04:36:15;24.77;;;10.57;;
18520;SDS011;9390;51.244;6.982;2022-10-31T04:38:46;31.88;;;10.88;;
18520;SDS011;9390;51.244;6.982;2022-10-31T04:41:18;20.00;;;9.90;;
18520;SDS011;9390;51.244;6.982;2022-10-31T04:43:49;31.30;;;11.85;;
18520;SDS011;9390;51.244;6.982;2022-10-31T04:46:21;27.88;;;10.77;;
18520;SDS011;9390;51.244;6.982;2022-10-31T04:48:52;29.83;;;11.48;;
18520;SDS011;9390;51.244;6.982;2022-10-31T04:51:25;21.88;;;10.57;;
18520;SDS011;9390;51.244;6.982;2022-10-31T04:53:56;31.27;;;12.80;;
18520;SDS011;9390;51.244;6.982;2022-10-31T04:56:28;27.08;;;11.77;;
18520;SDS011;9390;51.244;6.982;2022-10-31T04:58:59;28.05;;;11.70;;
18520;SDS011;9390;51.244;6.982;2022-10-31T05:01:30;23.73;;;11.35;;
18520;SDS011;9390;51.244;6.982;2022-10-31T05:04:02;25.23;;;11.35;;
18520;SDS011;9390;51.244;6.982;2022-10-31T05:06:35;29.52;;;11.57;;
18520;SDS011;9390;51.244;6.982;2022-10-31T05:09:06;23.65;;;11.35;;
18520;SDS011;9390;51.244;6.982;2022-10-31T05:11:38;29.27;;;11.77;;
18520;SDS011;9390;51.244;6.982;2022-10-31T05:14:09;28.55;;;11.88;;
18520;SDS011;9390;51.244;6.982;2022-10-31T05:16:40;33.00;;;12.57;;
18520;SDS011;9390;51.244;6.982;2022-10-31T05:19:12;32.80;;;12.55;;
18520;SDS011;9390;51.244;6.982;2022-10-31T05:21:45;31.35;;;12.70;;
18520;SDS011;9390;51.244;6.982;2022-10-31T05:24:16;25.08;;;12.38;;
18520;SDS011;9390;51.244;6.982;2022-10-31T05:26:47;27.05;;;12.73;;
18520;SDS011;9390;51.244;6.982;2022-10-31T05:29:19;25.23;;;11.93;;
18520;SDS011;9390;51.244;6.982;2022-10-31T05:31:50;30.33;;;12.05;;
18520;SDS011;9390;51.244;6.982;2022-10-31T05:34:22;31.05;;;13.15;;
18520;SDS011;9390;51.244;6.982;2022-10-31T05:36:54;28.02;;;12.05;;
18520;SDS011;9390;51.244;6.982;2022-10-31T05:39:26;38.15;;;13.38;;
18520;SDS011;9390;51.244;6.982;2022-10-31T05:41:57;33.28;;;13.63;;
18520;SDS011;9390;51.244;6.982;2022-10-31T05:44:29;40.72;;;13.82;;
18520;SDS011;9390;51.244;6.982;2022-10-31T05:47:00;30.75;;;13.40;;
18520;SDS011;9390;51.244;6.982;2022-10-31T05:49:31;30.20;;;13.00;;
18520;SDS011;9390;51.244;6.982;2022-10-31T05:54:49;31.80;;;14.07;;
18520;SDS011;9390;51.244;6.982;2022-10-31T05:57:20;31.02;;;13.85;;
18520;SDS011;9390;51.244;6.982;2022-10-31T05:59:51;32.60;;;14.48;;
18520;SDS011;9390;51.244;6.982;2022-10-31T06:02:23;34.28;;;14.88;;
18520;SDS011;9390;51.244;6.982;2022-10-31T06:04:55;30.38;;;14.60;;
18520;SDS011;9390;51.244;6.982;2022-10-31T06:07:26;32.70;;;15.57;;
18520;SDS011;9390;51.244;6.982;2022-10-31T06:09:59;45.85;;;16.73;;
18520;SDS011;9390;51.244;6.982;2022-10-31T06:12:30;44.58;;;15.70;;
18520;SDS011;9390;51.244;6.982;2022-10-31T06:15:02;34.13;;;15.15;;
18520;SDS011;9390;51.244;6.982;2022-10-31T06:17:37;41.22;;;16.70;;
18520;SDS011;9390;51.244;6.982;2022-10-31T06:20:11;41.92;;;16.48;;
18520;SDS011;9390;51.244;6.982;2022-10-31T06:22:42;44.72;;;15.55;;
18520;SDS011;9390;51.244;6.982;2022-10-31T06:25:15;44.03;;;16.95;;
18520;SDS011;9390;51.244;6.982;2022-10-31T06:27:46;36.55;;;15.80;;
18520;SDS011;9390;51.244;6.982;2022-10-31T06:30:18;42.17;;;15.27;;
18520;SDS011;9390;51.244;6.982;2022-10-31T06:32:49;38.30;;;16.70;;
18520;SDS011;9390;51.244;6.982;2022-10-31T06:35:21;43.35;;;16.15;;
18520;SDS011;9390;51.244;6.982;2022-10-31T06:37:52;40.03;;;16.70;;
18520;SDS011;9390;51.244;6.982;2022-10-31T06:40:25;43.33;;;17.40;;
18520;SDS011;9390;51.244;6.982;2022-10-31T06:42:57;40.00;;;16.70;;
18520;SDS011;9390;51.244;6.982;2022-10-31T06:45:29;37.83;;;17.08;;
18520;SDS011;9390;51.244;6.982;2022-10-31T06:48:00;50.08;;;18.60;;
18520;SDS011;9390;51.244;6.982;2022-10-31T06:50:31;43.00;;;18.13;;
18520;SDS011;9390;51.244;6.982;2022-10-31T06:53:03;44.22;;;17.35;;
18520;SDS011;9390;51.244;6.982;2022-10-31T06:55:35;42.42;;;17.88;;
18520;SDS011;9390;51.244;6.982;2022-10-31T06:58:08;42.33;;;16.10;;
18520;SDS011;9390;51.244;6.982;2022-10-31T07:00:40;39.92;;;16.58;;
18520;SDS011;9390;51.244;6.982;2022-10-31T07:03:12;44.45;;;17.38;;
18520;SDS011;9390;51.244;6.982;2022-10-31T07:05:45;44.58;;;17.52;;
18520;SDS011;9390;51.244;6.982;2022-10-31T07:08:16;41.97;;;18.17;;
18520;SDS011;9390;51.244;6.982;2022-10-31T07:10:52;44.42;;;19.15;;
18520;SDS011;9390;51.244;6.982;2022-10-31T07:13:24;42.95;;;17.42;;
18520;SDS011;9390;51.244;6.982;2022-10-31T07:16:00;42.97;;;18.27;;
18520;SDS011;9390;51.244;6.982;2022-10-31T07:18:32;52.10;;;18.65;;
18520;SDS011;9390;51.244;6.982;2022-10-31T07:21:03;48.75;;;18.27;;
18520;SDS011;9390;51.244;6.982;2022-10-31T07:23:35;44.30;;;17.13;;
18520;SDS011;9390;51.244;6.982;2022-10-31T07:26:08;45.25;;;17.67;;
18520;SDS011;9390;51.244;6.982;2022-10-31T07:28:40;50.95;;;17.08;;
18520;SDS011;9390;51.244;6.982;2022-10-31T07:31:12;44.47;;;17.52;;
18520;SDS011;9390;51.244;6.982;2022-10-31T07:33:43;57.22;;;18.73;;
18520;SDS011;9390;51.244;6.982;2022-10-31T07:36:14;56.97;;;18.75;;
18520;SDS011;9390;51.244;6.982;2022-10-31T07:38:46;38.50;;;17.95;;
18520;SDS011;9390;51.244;6.982;2022-10-31T07:41:19;45.45;;;18.85;;
18520;SDS011;9390;51.244;6.982;2022-10-31T07:43:50;47.65;;;19.35;;
18520;SDS011;9390;51.244;6.982;2022-10-31T07:46:21;46.17;;;19.75;;
18520;SDS011;9390;51.244;6.982;2022-10-31T07:48:53;49.83;;;19.35;;
18520;SDS011;9390;51.244;6.982;2022-10-31T07:51:24;40.80;;;19.13;;
18520;SDS011;9390;51.244;6.982;2022-10-31T07:53:56;43.75;;;18.23;;
18520;SDS011;9390;51.244;6.982;2022-10-31T07:56:29;41.35;;;18.23;;
18520;SDS011;9390;51.244;6.982;2022-10-31T07:59:00;43.10;;;19.38;;
18520;SDS011;9390;51.244;6.982;2022-10-31T08:01:31;46.78;;;18.48;;
18520;SDS011;9390;51.244;6.982;2022-10-31T08:04:03;39.78;;;18.08;;
18520;SDS011;9390;51.244;6.982;2022-10-31T08:06:34;45.15;;;18.42;;
18520;SDS011;9390;51.244;6.982;2022-10-31T08:09:06;47.33;;;18.55;;
18520;SDS011;9390;51.244;6.982;2022-10-31T08:11:38;44.42;;;18.77;;
18520;SDS011;9390;51.244;6.982;2022-10-31T08:14:10;43.60;;;18.23;;
18520;SDS011;9390;51.244;6.982;2022-10-31T08:16:41;52.85;;;19.67;;
18520;SDS011;9390;51.244;6.982;2022-10-31T08:19:12;44.35;;;21.13;;
18520;SDS011;9390;51.244;6.982;2022-10-31T08:21:44;46.80;;;18.08;;
18520;SDS011;9390;51.244;6.982;2022-10-31T08:24:15;45.50;;;19.20;;
18520;SDS011;9390;51.244;6.982;2022-10-31T08:26:48;41.58;;;18.02;;
18520;SDS011;9390;51.244;6.982;2022-10-31T08:29:19;49.22;;;18.80;;
18520;SDS011;9390;51.244;6.982;2022-10-31T08:31:51;42.60;;;20.45;;
18520;SDS011;9390;51.244;6.982;2022-10-31T08:34:22;43.92;;;19.27;;
18520;SDS011;9390;51.244;6.982;2022-10-31T08:36:53;40.70;;;18.50;;
18520;SDS011;9390;51.244;6.982;2022-10-31T08:39:25;39.35;;;17.75;;
18520;SDS011;9390;51.244;6.982;2022-10-31T08:41:57;50.95;;;18.23;;
18520;SDS011;9390;51.244;6.982;2022-10-31T08:44:29;46.90;;;18.02;;
18520;SDS011;9390;51.244;6.982;2022-10-31T08:47:00;39.90;;;17.27;;
18520;SDS011;9390;51.244;6.982;2022-10-31T08:49:31;41.13;;;18.02;;
18520;SDS011;9390;51.244;6.982;2022-10-31T08:52:03;44.25;;;19.95;;
18520;SDS011;9390;51.244;6.982;2022-10-31T08:54:34;44.60;;;20.75;;
18520;SDS011;9390;51.244;6.982;2022-10-31T08:57:07;40.65;;;19.08;;
18520;SDS011;9390;51.244;6.982;2022-10-31T08:59:38;49.08;;;20.52;;
18520;SDS011;9390;51.244;6.982;2022-10-31T09:02:10;54.15;;;21.38;;
18520;SDS011;9390;51.244;6.982;2022-10-31T09:04:41;50.03;;;20.40;;
18520;SDS011;9390;51.244;6.982;2022-10-31T09:07:13;45.58;;;20.65;;
18520;SDS011;9390;51.244;6.982;2022-10-31T09:09:44;41.03;;;19.67;;
18520;SDS011;9390;51.244;6.982;2022-10-31T09:12:17;60.88;;;21.55;;
18520;SDS011;9390;51.244;6.982;2022-10-31T09:14:48;42.67;;;21.45;;
18520;SDS011;9390;51.244;6.982;2022-10-31T09:17:20;39.08;;;19.50;;
18520;SDS011;9390;51.244;6.982;2022-10-31T09:19:51;47.17;;;19.63;;
18520;SDS011;9390;51.244;6.982;2022-10-31T09:22:22;40.00;;;19.30;;
18520;SDS011;9390;51.244;6.982;2022-10-31T09:24:54;45.28;;;19.88;;
18520;SDS011;9390;51.244;6.982;2022-10-31T09:27:27;43.78;;;18.73;;
18520;SDS011;9390;51.244;6.982;2022-10-31T09:29:58;47.88;;;19.83;;
18520;SDS011;9390;51.244;6.982;2022-10-31T09:32:29;44.10;;;19.00;;
18520;SDS011;9390;51.244;6.982;2022-10-31T09:35:01;49.35;;;19.33;;
18520;SDS011;9390;51.244;6.982;2022-10-31T09:37:32;45.00;;;18.13;;
18520;SDS011;9390;51.244;6.982;2022-10-31T09:40:07;46.65;;;18.27;;
18520;SDS011;9390;51.244;6.982;2022-10-31T09:42:50;52.50;;;19.50;;
18520;SDS011;9390;51.244;6.982;2022-10-31T09:45:29;44.15;;;17.75;;
18520;SDS011;9390;51.244;6.982;2022-10-31T09:48:07;44.72;;;17.65;;
18520;SDS011;9390;51.244;6.982;2022-10-31T09:50:46;38.10;;;17.52;;
18520;SDS011;9390;51.244;6.982;2022-10-31T09:53:22;46.92;;;17.35;;
18520;SDS011;9390;51.244;6.982;2022-10-31T09:55:55;40.17;;;17.23;;
18520;SDS011;9390;51.244;6.982;2022-10-31T09:58:29;42.17;;;16.58;;
18520;SDS011;9390;51.244;6.982;2022-10-31T10:01:01;39.20;;;16.42;;
18520;SDS011;9390;51.244;6.982;2022-10-31T10:03:35;41.80;;;17.83;;
18520;SDS011;9390;51.244;6.982;2022-10-31T10:06:11;46.22;;;16.25;;
18520;SDS011;9390;51.244;6.982;2022-10-31T10:08:45;48.15;;;16.05;;
18520;SDS011;9390;51.244;6.982;2022-10-31T10:11:24;42.10;;;17.13;;
18520;SDS011;9390;51.244;6.982;2022-10-31T10:14:07;35.47;;;15.43;;
18520;SDS011;9390;51.244;6.982;2022-10-31T10:16:50;35.03;;;15.35;;
18520;SDS011;9390;51.244;6.982;2022-10-31T10:19:30;37.75;;;15.60;;
18520;SDS011;9390;51.244;6.982;2022-10-31T10:22:10;36.95;;;14.65;;
18520;SDS011;9390;51.244;6.982;2022-10-31T10:24:59;37.35;;;14.77;;
18520;SDS011;9390;51.244;6.982;2022-10-31T10:27:41;33.03;;;14.32;;
18520;SDS011;9390;51.244;6.982;2022-10-31T10:30:19;32.65;;;13.68;;
18520;SDS011;9390;51.244;6.982;2022-10-31T10:32:52;29.05;;;12.77;;
18520;SDS011;9390;51.244;6.982;2022-10-31T10:35:27;29.35;;;12.00;;
18520;SDS011;9390;51.244;6.982;2022-10-31T10:38:01;28.67;;;11.43;;
18520;SDS011;9390;51.244;6.982;2022-10-31T10:40:35;22.75;;;10.07;;
18520;SDS011;9390;51.244;6.982;2022-10-31T10:43:12;25.23;;;10.18;;
18520;SDS011;9390;51.244;6.982;2022-10-31T10:45:58;27.38;;;9.30;;
18520;SDS011;9390;51.244;6.982;2022-10-31T10:48:54;25.33;;;9.40;;
18520;SDS011;9390;51.244;6.982;2022-10-31T10:51:32;15.85;;;7.78;;
18520;SDS011;9390;51.244;6.982;2022-10-31T10:54:15;21.90;;;8.93;;
18520;SDS011;9390;51.244;6.982;2022-10-31T10:56:58;22.52;;;8.45;;
18520;SDS011;9390;51.244;6.982;2022-10-31T10:59:34;22.17;;;7.70;;
18520;SDS011;9390;51.244;6.982;2022-10-31T11:02:15;21.70;;;8.35;;
18520;SDS011;9390;51.244;6.982;2022-10-31T11:04:49;21.88;;;7.85;;
18520;SDS011;9390;51.244;6.982;2022-10-31T11:07:21;22.58;;;7.28;;
18520;SDS011;9390;51.244;6.982;2022-10-31T11:10:02;19.90;;;7.72;;
18520;SDS011;9390;51.244;6.982;2022-10-31T11:12:34;23.35;;;6.57;;
18520;SDS011;9390;51.244;6.982;2022-10-31T11:15:07;16.95;;;6.50;;
18520;SDS011;9390;51.244;6.982;2022-10-31T11:17:49;25.45;;;6.97;;
18520;SDS011;9390;51.244;6.982;2022-10-31T11:20:26;22.95;;;6.75;;
18520;SDS011;9390;51.244;6.982;2022-10-31T11:23:03;18.65;;;6.38;;
18520;SDS011;9390;51.244;6.982;2022-10-31T11:25:47;17.27;;;5.93;;
18520;SDS011;9390;51.244;6.982;2022-10-31T11:28:19;23.50;;;6.10;;
18520;SDS011;9390;51.244;6.982;2022-10-31T11:30:52;18.88;;;5.50;;
18520;SDS011;9390;51.244;6.982;2022-10-31T11:33:28;18.25;;;5.07;;
18520;SDS011;9390;51.244;6.982;2022-10-31T11:36:01;18.85;;;4.95;;
18520;SDS011;9390;51.244;6.982;2022-10-31T11:38:39;13.32;;;4.85;;
18520;SDS011;9390;51.244;6.982;2022-10-31T11:41:12;18.23;;;5.43;;
18520;SDS011;9390;51.244;6.982;2022-10-31T11:43:46;18.52;;;5.53;;
18520;SDS011;9390;51.244;6.982;2022-10-31T11:46:21;13.85;;;4.30;;
18520;SDS011;9390;51.244;6.982;2022-10-31T11:49:02;15.55;;;5.07;;
18520;SDS011;9390;51.244;6.982;2022-10-31T11:51:35;18.30;;;4.97;;
18520;SDS011;9390;51.244;6.982;2022-10-31T11:54:14;19.75;;;4.68;;
18520;SDS011;9390;51.244;6.982;2022-10-31T11:56:50;13.40;;;4.65;;
18520;SDS011;9390;51.244;6.982;2022-10-31T11:59:23;18.50;;;5.53;;
18520;SDS011;9390;51.244;6.982;2022-10-31T12:01:58;12.15;;;4.68;;
18520;SDS011;9390;51.244;6.982;2022-10-31T12:04:36;17.30;;;5.00;;
18520;SDS011;9390;51.244;6.982;2022-10-31T12:07:11;15.65;;;4.75;;
18520;SDS011;9390;51.244;6.982;2022-10-31T12:09:42;15.23;;;4.65;;
18520;SDS011;9390;51.244;6.982;2022-10-31T12:12:18;16.15;;;5.05;;
18520;SDS011;9390;51.244;6.982;2022-10-31T12:15:15;11.82;;;4.32;;
18520;SDS011;9390;51.244;6.982;2022-10-31T12:17:55;18.92;;;5.35;;
18520;SDS011;9390;51.244;6.982;2022-10-31T12:20:37;15.35;;;4.90;;
18520;SDS011;9390;51.244;6.982;2022-10-31T12:23:14;14.48;;;5.28;;
18520;SDS011;9390;51.244;6.982;2022-10-31T12:25:50;15.48;;;5.15;;
18520;SDS011;9390;51.244;6.982;2022-10-31T12:28:32;14.82;;;4.50;;
18520;SDS011;9390;51.244;6.982;2022-10-31T12:31:15;14.13;;;4.55;;
18520;SDS011;9390;51.244;6.982;2022-10-31T12:33:56;15.65;;;4.38;;
18520;SDS011;9390;51.244;6.982;2022-10-31T12:36:35;18.48;;;4.43;;
18520;SDS011;9390;51.244;6.982;2022-10-31T12:39:19;13.35;;;4.47;;
18520;SDS011;9390;51.244;6.982;2022-10-31T12:41:58;13.55;;;4.70;;
18520;SDS011;9390;51.244;6.982;2022-10-31T12:44:40;14.25;;;4.25;;
18520;SDS011;9390;51.244;6.982;2022-10-31T12:47:33;16.77;;;4.28;;
18520;SDS011;9390;51.244;6.982;2022-10-31T12:50:14;12.68;;;4.53;;
18520;SDS011;9390;51.244;6.982;2022-10-31T12:52:56;13.23;;;3.70;;
18520;SDS011;9390;51.244;6.982;2022-10-31T12:55:40;16.52;;;4.32;;
18520;SDS011;9390;51.244;6.982;2022-10-31T12:58:17;15.85;;;4.82;;
18520;SDS011;9390;51.244;6.982;2022-10-31T13:00:54;14.68;;;3.95;;
18520;SDS011;9390;51.244;6.982;2022-10-31T13:03:33;16.38;;;4.72;;
18520;SDS011;9390;51.244;6.982;2022-10-31T13:06:13;12.63;;;4.13;;
18520;SDS011;9390;51.244;6.982;2022-10-31T13:08:51;11.82;;;4.00;;
18520;SDS011;9390;51.244;6.982;2022-10-31T13:11:24;14.73;;;4.55;;
18520;SDS011;9390;51.244;6.982;2022-10-31T13:13:59;16.23;;;4.20;;
18520;SDS011;9390;51.244;6.982;2022-10-31T13:16:33;13.02;;;3.90;;
18520;SDS011;9390;51.244;6.982;2022-10-31T13:19:09;11.95;;;4.40;;
18520;SDS011;9390;51.244;6.982;2022-10-31T13:21:44;15.70;;;4.05;;
18520;SDS011;9390;51.244;6.982;2022-10-31T13:24:26;17.95;;;4.30;;
18520;SDS011;9390;51.244;6.982;2022-10-31T13:27:02;12.68;;;3.88;;
18520;SDS011;9390;51.244;6.982;2022-10-31T13:29:38;14.25;;;3.63;;
18520;SDS011;9390;51.244;6.982;2022-10-31T13:34:44;12.65;;;3.97;;
18520;SDS011;9390;51.244;6.982;2022-10-31T13:37:17;14.02;;;4.32;;
18520;SDS011;9390;51.244;6.982;2022-10-31T13:40:00;14.57;;;4.50;;
18520;SDS011;9390;51.244;6.982;2022-10-31T13:45:12;17.00;;;3.83;;
18520;SDS011;9390;51.244;6.982;2022-10-31T13:47:54;11.48;;;4.35;;
18520;SDS011;9390;51.244;6.982;2022-10-31T13:50:26;22.15;;;5.55;;
18520;SDS011;9390;51.244;6.982;2022-10-31T13:53:20;15.48;;;3.85;;
18520;SDS011;9390;51.244;6.982;2022-10-31T13:56:02;12.38;;;3.78;;
18520;SDS011;9390;51.244;6.982;2022-10-31T13:58:35;15.83;;;4.63;;
18520;SDS011;9390;51.244;6.982;2022-10-31T14:01:12;18.88;;;5.63;;
18520;SDS011;9390;51.244;6.982;2022-10-31T14:03:47;15.75;;;5.22;;
18520;SDS011;9390;51.244;6.982;2022-10-31T14:09:18;23.50;;;6.07;;
18520;SDS011;9390;51.244;6.982;2022-10-31T14:11:53;16.73;;;5.15;;
18520;SDS011;9390;51.244;6.982;2022-10-31T14:14:27;14.85;;;5.07;;
18520;SDS011;9390;51.244;6.982;2022-10-31T14:17:02;23.75;;;7.93;;
18520;SDS011;9390;51.244;6.982;2022-10-31T14:19:34;17.60;;;5.68;;
18520;SDS011;9390;51.244;6.982;2022-10-31T14:22:18;18.98;;;6.13;;
18520;SDS011;9390;51.244;6.982;2022-10-31T14:24:50;15.05;;;4.60;;
18520;SDS011;9390;51.244;6.982;2022-10-31T14:27:44;13.57;;;4.60;;
18520;SDS011;9390;51.244;6.982;2022-10-31T14:30:18;15.40;;;4.60;;
18520;SDS011;9390;51.244;6.982;2022-10-31T14:32:53;22.23;;;5.45;;
18520;SDS011;9390;51.244;6.982;2022-10-31T14:35:30;19.60;;;5.38;;
18520;SDS011;9390;51.244;6.982;2022-10-31T14:38:15;11.48;;;5.07;;
18520;SDS011;9390;51.244;6.982;2022-10-31T14:41:00;18.70;;;5.13;;
18520;SDS011;9390;51.244;6.982;2022-10-31T14:43:55;17.08;;;4.30;;
18520;SDS011;9390;51.244;6.982;2022-10-31T14:46:38;14.10;;;4.43;;
18520;SDS011;9390;51.244;6.982;2022-10-31T14:49:34;16.17;;;4.28;;
18520;SDS011;9390;51.244;6.982;2022-10-31T14:52:13;15.75;;;4.85;;
18520;SDS011;9390;51.244;6.982;2022-10-31T14:54:47;11.65;;;3.97;;
18520;SDS011;9390;51.244;6.982;2022-10-31T14:57:22;12.57;;;4.15;;
18520;SDS011;9390;51.244;6.982;2022-10-31T14:59:57;10.32;;;3.85;;
18520;SDS011;9390;51.244;6.982;2022-10-31T15:02:31;16.02;;;4.45;;
18520;SDS011;9390;51.244;6.982;2022-10-31T15:05:06;25.67;;;4.88;;
18520;SDS011;9390;51.244;6.982;2022-10-31T15:07:47;14.43;;;4.30;;
18520;SDS011;9390;51.244;6.982;2022-10-31T15:10:20;20.17;;;4.72;;
18520;SDS011;9390;51.244;6.982;2022-10-31T15:12:53;15.85;;;4.82;;
18520;SDS011;9390;51.244;6.982;2022-10-31T15:15:26;18.20;;;4.68;;
18520;SDS011;9390;51.244;6.982;2022-10-31T15:17:58;16.73;;;4.28;;
18520;SDS011;9390;51.244;6.982;2022-10-31T15:20:32;18.33;;;4.43;;
18520;SDS011;9390;51.244;6.982;2022-10-31T15:23:14;14.00;;;3.65;;
18520;SDS011;9390;51.244;6.982;2022-10-31T15:25:47;14.00;;;3.90;;
18520;SDS011;9390;51.244;6.982;2022-10-31T15:28:21;15.18;;;4.45;;
18520;SDS011;9390;51.244;6.982;2022-10-31T15:30:56;15.20;;;3.90;;
18520;SDS011;9390;51.244;6.982;2022-10-31T15:33:29;13.68;;;4.10;;
18520;SDS011;9390;51.244;6.982;2022-10-31T15:36:01;14.50;;;4.45;;
18520;SDS011;9390;51.244;6.982;2022-10-31T15:38:33;13.27;;;3.22;;